Wetterdaten: Woche 22.06.09 - 28.06.09 (KW26)
Datum Zeit Temp. Innen Temp. Aussen UV X Diff Temp. Feuchte Inne Feuchte Auss Sonnenschein Luftdruck Regen ab 0,1 Wind Sonnenschein Windben
22.06.2009 00:00 19,6 C 11,3 C 0,0 UV-I 0,0 C 51 % 80 % 0 % 1023,3 hPa 0,0 l/m 0,0 km/h (0 Bft) 0,00 h 0,0 km/h (0 Bft)
22.06.2009 01:00 19,3 C 10,2 C 0,0 UV-I 0,0 C 51 % 82 % 0 % 1023,4 hPa 0,0 l/m 0,0 km/h (0 Bft) 0,00 h 0,0 km/h (0 Bft)
22.06.2009 02:00 19,0 C 9,4 C 0,0 UV-I 0,0 C 53 % 86 % 0 % 1023,3 hPa 0,0 l/m 0,0 km/h (0 Bft) 0,00 h 0,0 km/h (0 Bft)
22.06.2009 03:00 18,8 C 8,9 C 0,0 UV-I 0,0 C 53 % 89 % 0 % 1023,3 hPa 0,0 l/m 0,0 km/h (0 Bft) 0,00 h 0,1 km/h (0 Bft)
22.06.2009 04:00 18,6 C 8,5 C 0,0 UV-I 0,0 C 54 % 89 % 0 % 1023,5 hPa 0,0 l/m 0,0 km/h (0 Bft) 0,00 h 0,0 km/h (0 Bft)
22.06.2009 05:00 18,4 C 8,2 C 0,0 UV-I 0,0 C 54 % 90 % 0 % 1023,8 hPa 0,0 l/m 0,0 km/h (0 Bft) 0,00 h 0,0 km/h (0 Bft)
22.06.2009 06:00 18,3 C 8,8 C 0,3 UV-I 0,1 C 55 % 92 % 4 % 1024,2 hPa 0,0 l/m 0,0 km/h (0 Bft) 0,00 h 0,0 km/h (0 Bft)
22.06.2009 07:00 18,3 C 9,8 C 1,0 UV-I 0,1 C 55 % 91 % 3 % 1024,8 hPa 0,0 l/m 0,9 km/h (0 Bft) 0,00 h 2,1 km/h (1 Bft)
22.06.2009 08:00 18,4 C 11,3 C 1,5 UV-I 0,3 C 56 % 89 % 7 % 1025,2 hPa 0,0 l/m 2,1 km/h (1 Bft) 0,00 h 3,4 km/h (1 Bft)
22.06.2009 09:00 18,7 C 13,2 C 2,3 UV-I 1,3 C 56 % 81 % 37 % 1025,5 hPa 0,0 l/m 3,4 km/h (1 Bft) 0,13 h 5,5 km/h (1 Bft)
22.06.2009 10:00 19,0 C 14,4 C 2,2 UV-I 1,7 C 55 % 74 % 50 % 1025,9 hPa 0,0 l/m 3,4 km/h (1 Bft) 0,07 h 4,9 km/h (1 Bft)
22.06.2009 11:00 19,4 C 15,7 C 4,9 UV-I 3,3 C 54 % 69 % 84 % 1026,1 hPa 0,0 l/m 4,5 km/h (1 Bft) 0,57 h 6,4 km/h (2 Bft)
22.06.2009 12:00 19,8 C 16,2 C 2,6 UV-I 1,3 C 52 % 63 % 36 % 1026,4 hPa 0,0 l/m 4,0 km/h (1 Bft) 0,17 h 5,5 km/h (1 Bft)
22.06.2009 13:00 19,8 C 16,4 C 3,3 UV-I 1,6 C 51 % 63 % 47 % 1026,8 hPa 0,0 l/m 3,0 km/h (1 Bft) 0,00 h 4,3 km/h (1 Bft)
22.06.2009 14:00 20,1 C 17,3 C 4,0 UV-I 2,3 C 50 % 59 % 66 % 1026,8 hPa 0,0 l/m 2,4 km/h (1 Bft) 0,17 h 3,4 km/h (1 Bft)
22.06.2009 15:00 20,5 C 18,9 C 5,6 UV-I 3,8 C 48 % 52 % 95 % 1026,9 hPa 0,0 l/m 3,6 km/h (1 Bft) 0,80 h 5,4 km/h (1 Bft)
22.06.2009 16:00 21,1 C 19,1 C 3,5 UV-I 2,1 C 48 % 53 % 59 % 1026,8 hPa 0,0 l/m 4,0 km/h (1 Bft) 0,07 h 6,7 km/h (2 Bft)
22.06.2009 17:00 21,3 C 19,1 C 3,0 UV-I 2,2 C 48 % 52 % 61 % 1026,7 hPa 0,0 l/m 3,0 km/h (1 Bft) 0,20 h 4,2 km/h (1 Bft)
22.06.2009 18:00 21,4 C 18,7 C 2,2 UV-I 1,5 C 48 % 55 % 43 % 1026,6 hPa 0,0 l/m 3,2 km/h (1 Bft) 0,07 h 4,4 km/h (1 Bft)
22.06.2009 19:00 21,2 C 18,3 C 1,6 UV-I 0,1 C 48 % 55 % 3 % 1026,5 hPa 0,0 l/m 2,9 km/h (1 Bft) 0,00 h 4,8 km/h (1 Bft)
22.06.2009 20:00 21,0 C 17,9 C 0,8 UV-I 0,0 C 49 % 58 % 0 % 1026,6 hPa 0,0 l/m 1,5 km/h (1 Bft) 0,00 h 1,6 km/h (1 Bft)
22.06.2009 21:00 20,9 C 16,8 C 0,2 UV-I 0,0 C 50 % 64 % 0 % 1026,6 hPa 0,0 l/m 0,0 km/h (0 Bft) 0,00 h 0,0 km/h (0 Bft)
22.06.2009 22:00 20,4 C 14,9 C 0,0 UV-I 0,0 C 52 % 71 % 0 % 1027,1 hPa 0,0 l/m 0,0 km/h (0 Bft) 0,00 h 0,0 km/h (0 Bft)
22.06.2009 23:00 20,2 C 13,2 C 0,0 UV-I 0,0 C 52 % 77 % 0 % 1027,3 hPa 0,0 l/m 0,0 km/h (0 Bft) 0,00 h 0,0 km/h (0 Bft)
23.06.2009 00:00 19,7 C 12,1 C 0,0 UV-I 0,0 C 53 % 81 % 0 % 1027,5 hPa 0,0 l/m 0,0 km/h (0 Bft) 0,00 h 0,0 km/h (0 Bft)
23.06.2009 01:00 19,4 C 11,5 C 0,0 UV-I 0,0 C 55 % 85 % 0 % 1027,5 hPa 0,0 l/m 0,0 km/h (0 Bft) 0,00 h 0,0 km/h (0 Bft)
23.06.2009 02:00 19,2 C 11,4 C 0,0 UV-I 0,0 C 56 % 87 % 0 % 1027,4 hPa 0,0 l/m 0,0 km/h (0 Bft) 0,00 h 0,1 km/h (0 Bft)
23.06.2009 03:00 19,0 C 10,7 C 0,0 UV-I 0,0 C 56 % 88 % 0 % 1027,5 hPa 0,0 l/m 0,0 km/h (0 Bft) 0,00 h 0,0 km/h (0 Bft)
23.06.2009 04:00 18,7 C 10,1 C 0,0 UV-I 0,0 C 56 % 89 % 0 % 1027,5 hPa 0,0 l/m 0,0 km/h (0 Bft) 0,00 h 0,0 km/h (0 Bft)
23.06.2009 05:00 18,5 C 9,6 C 0,0 UV-I 0,0 C 57 % 90 % 0 % 1027,0 hPa 0,0 l/m 0,0 km/h (0 Bft) 0,00 h 0,0 km/h (0 Bft)
23.06.2009 06:00 18,4 C 9,8 C 0,4 UV-I 0,0 C 58 % 92 % 0 % 1027,1 hPa 0,0 l/m 0,1 km/h (0 Bft) 0,00 h 0,4 km/h (0 Bft)
23.06.2009 07:00 18,4 C 11,0 C 0,5 UV-I 0,1 C 59 % 93 % 4 % 1027,0 hPa 0,0 l/m 1,2 km/h (1 Bft) 0,00 h 2,7 km/h (1 Bft)
23.06.2009 08:00 18,5 C 11,6 C 0,7 UV-I 0,2 C 60 % 92 % 5 % 1027,3 hPa 0,0 l/m 2,4 km/h (1 Bft) 0,00 h 3,9 km/h (1 Bft)
23.06.2009 09:00 18,6 C 12,2 C 1,1 UV-I 0,7 C 60 % 91 % 19 % 1027,8 hPa 0,0 l/m 2,1 km/h (1 Bft) 0,00 h 3,4 km/h (1 Bft)
23.06.2009 10:00 18,9 C 13,7 C 3,0 UV-I 2,5 C 61 % 86 % 65 % 1028,0 hPa 0,0 l/m 3,4 km/h (1 Bft) 0,17 h 5,9 km/h (2 Bft)
23.06.2009 11:00 19,4 C 16,6 C 7,0 UV-I 5,2 C 63 % 77 % 100 % 1027,6 hPa 0,0 l/m 3,9 km/h (1 Bft) 0,83 h 5,9 km/h (2 Bft)
23.06.2009 12:00 19,8 C 19,6 C 6,8 UV-I 5,3 C 61 % 65 % 100 % 1027,4 hPa 0,0 l/m 4,0 km/h (1 Bft) 0,87 h 6,3 km/h (2 Bft)
23.06.2009 13:00 20,3 C 21,1 C 5,6 UV-I 3,4 C 58 % 58 % 90 % 1026,9 hPa 0,0 l/m 4,6 km/h (1 Bft) 0,57 h 8,0 km/h (2 Bft)
23.06.2009 14:00 20,9 C 22,0 C 5,7 UV-I 3,3 C 56 % 53 % 91 % 1026,4 hPa 0,0 l/m 5,4 km/h (1 Bft) 0,67 h 7,1 km/h (2 Bft)
23.06.2009 15:00 21,7 C 22,8 C 5,5 UV-I 3,1 C 54 % 48 % 86 % 1025,9 hPa 0,0 l/m 5,4 km/h (1 Bft) 0,47 h 8,1 km/h (2 Bft)
23.06.2009 16:00 22,4 C 23,7 C 5,4 UV-I 3,2 C 51 % 45 % 88 % 1025,8 hPa 0,0 l/m 4,4 km/h (1 Bft) 0,53 h 6,7 km/h (2 Bft)
23.06.2009 17:00 22,9 C 23,8 C 3,5 UV-I 2,4 C 49 % 44 % 68 % 1025,2 hPa 0,0 l/m 4,8 km/h (1 Bft) 0,10 h 6,8 km/h (2 Bft)
23.06.2009 18:00 23,1 C 23,2 C 2,0 UV-I 1,9 C 48 % 46 % 55 % 1025,1 hPa 0,0 l/m 4,5 km/h (1 Bft) 0,17 h 6,5 km/h (2 Bft)
23.06.2009 19:00 22,8 C 22,4 C 1,4 UV-I 0,1 C 48 % 47 % 1 % 1024,3 hPa 0,0 l/m 4,5 km/h (1 Bft) 0,00 h 5,9 km/h (2 Bft)
23.06.2009 20:00 22,6 C 21,8 C 0,8 UV-I 0,0 C 48 % 49 % 0 % 1023,7 hPa 0,0 l/m 5,0 km/h (1 Bft) 0,00 h 6,7 km/h (2 Bft)
23.06.2009 21:00 22,3 C 20,6 C 0,2 UV-I 0,0 C 49 % 53 % 0 % 1023,8 hPa 0,0 l/m 2,4 km/h (1 Bft) 0,00 h 3,3 km/h (1 Bft)
23.06.2009 22:00 22,2 C 19,1 C 0,0 UV-I 0,0 C 49 % 58 % 0 % 1024,0 hPa 0,0 l/m 1,1 km/h (1 Bft) 0,00 h 2,1 km/h (1 Bft)
23.06.2009 23:00 21,8 C 17,6 C 0,0 UV-I 0,0 C 51 % 66 % 0 % 1024,3 hPa 0,0 l/m 1,2 km/h (1 Bft) 0,00 h 2,0 km/h (1 Bft)
24.06.2009 00:00 21,4 C 16,7 C 0,0 UV-I 0,0 C 54 % 73 % 0 % 1024,1 hPa 0,0 l/m 2,4 km/h (1 Bft) 0,00 h 4,0 km/h (1 Bft)
24.06.2009 01:00 21,0 C 15,9 C 0,0 UV-I 0,0 C 55 % 75 % 0 % 1023,9 hPa 0,0 l/m 2,2 km/h (1 Bft) 0,00 h 3,7 km/h (1 Bft)
24.06.2009 02:00 20,6 C 14,8 C 0,0 UV-I 0,0 C 56 % 78 % 0 % 1023,5 hPa 0,0 l/m 2,0 km/h (1 Bft) 0,00 h 3,2 km/h (1 Bft)
24.06.2009 03:00 20,3 C 13,8 C 0,0 UV-I 0,0 C 56 % 81 % 0 % 1022,8 hPa 0,0 l/m 1,1 km/h (0 Bft) 0,00 h 1,9 km/h (1 Bft)
24.06.2009 04:00 19,9 C 12,9 C 0,0 UV-I 0,0 C 57 % 84 % 0 % 1022,5 hPa 0,0 l/m 1,1 km/h (1 Bft) 0,00 h 2,0 km/h (1 Bft)
24.06.2009 05:00 19,7 C 12,2 C 0,1 UV-I 0,0 C 57 % 86 % 0 % 1022,3 hPa 0,0 l/m 0,5 km/h (0 Bft) 0,00 h 0,6 km/h (0 Bft)
24.06.2009 06:00 19,5 C 12,3 C 0,5 UV-I 0,0 C 58 % 88 % 0 % 1021,6 hPa 0,0 l/m 1,3 km/h (1 Bft) 0,00 h 2,4 km/h (1 Bft)
24.06.2009 07:00 19,4 C 13,4 C 1,0 UV-I 0,0 C 59 % 86 % 0 % 1021,5 hPa 0,0 l/m 2,4 km/h (1 Bft) 0,00 h 3,7 km/h (1 Bft)
24.06.2009 08:00 19,6 C 15,4 C 1,6 UV-I 0,2 C 59 % 78 % 7 % 1021,5 hPa 0,0 l/m 2,9 km/h (1 Bft) 0,00 h 5,1 km/h (1 Bft)
24.06.2009 09:00 19,9 C 17,7 C 1,9 UV-I 1,6 C 57 % 67 % 36 % 1021,2 hPa 0,0 l/m 1,4 km/h (1 Bft) 0,20 h 2,2 km/h (1 Bft)
24.06.2009 10:00 20,3 C 20,3 C 3,9 UV-I 6,5 C 54 % 55 % 100 % 1020,7 hPa 0,0 l/m 2,5 km/h (1 Bft) 1,00 h 4,6 km/h (1 Bft)
24.06.2009 11:00 20,5 C 22,9 C 10,3 UV-I 5,7 C 52 % 45 % 100 % 1020,6 hPa 0,0 l/m 2,5 km/h (1 Bft) 1,00 h 3,7 km/h (1 Bft)
24.06.2009 12:00 20,9 C 24,6 C 6,7 UV-I 4,7 C 50 % 39 % 100 % 1019,8 hPa 0,0 l/m 3,9 km/h (1 Bft) 0,93 h 6,1 km/h (2 Bft)
24.06.2009 13:00 21,4 C 25,8 C 6,5 UV-I 4,2 C 47 % 35 % 100 % 1019,5 hPa 0,0 l/m 3,5 km/h (1 Bft) 0,97 h 4,8 km/h (1 Bft)
24.06.2009 14:00 22,2 C 26,7 C 6,5 UV-I 3,8 C 45 % 34 % 99 % 1019,3 hPa 0,0 l/m 4,0 km/h (1 Bft) 0,93 h 7,6 km/h (2 Bft)
24.06.2009 15:00 23,3 C 27,3 C 6,1 UV-I 3,8 C 43 % 32 % 99 % 1019,1 hPa 0,0 l/m 3,5 km/h (1 Bft) 0,93 h 4,8 km/h (1 Bft)
24.06.2009 16:00 24,4 C 28,2 C 7,1 UV-I 4,0 C 40 % 30 % 100 % 1018,3 hPa 0,0 l/m 2,9 km/h (1 Bft) 0,93 h 4,5 km/h (1 Bft)
24.06.2009 17:00 25,2 C 28,6 C 4,5 UV-I 4,1 C 38 % 29 % 100 % 1017,8 hPa 0,0 l/m 2,2 km/h (1 Bft) 0,93 h 4,2 km/h (1 Bft)
24.06.2009 18:00 25,6 C 27,3 C 2,2 UV-I 3,7 C 37 % 31 % 94 % 1017,9 hPa 0,0 l/m 1,8 km/h (1 Bft) 0,80 h 3,4 km/h (1 Bft)
24.06.2009 19:00 24,9 C 25,4 C 1,6 UV-I 0,1 C 39 % 35 % 3 % 1017,7 hPa 0,0 l/m 1,1 km/h (1 Bft) 0,00 h 2,2 km/h (1 Bft)
24.06.2009 20:00 24,3 C 24,2 C 0,8 UV-I 0,0 C 40 % 38 % 0 % 1017,0 hPa 0,0 l/m 0,3 km/h (0 Bft) 0,00 h 0,3 km/h (0 Bft)
24.06.2009 21:00 24,0 C 22,7 C 0,2 UV-I 0,0 C 41 % 43 % 0 % 1016,7 hPa 0,0 l/m 0,0 km/h (0 Bft) 0,00 h 0,0 km/h (0 Bft)
24.06.2009 22:00 23,5 C 20,7 C 0,0 UV-I 0,0 C 42 % 49 % 0 % 1016,7 hPa 0,0 l/m 0,0 km/h (0 Bft) 0,00 h 0,0 km/h (0 Bft)
24.06.2009 23:00 23,1 C 19,0 C 0,0 UV-I 0,0 C 44 % 56 % 0 % 1016,6 hPa 0,0 l/m 0,0 km/h (0 Bft) 0,00 h 0,0 km/h (0 Bft)
25.06.2009 00:00 22,6 C 17,5 C 0,0 UV-I 0,0 C 46 % 62 % 0 % 1016,3 hPa 0,0 l/m 0,0 km/h (0 Bft) 0,00 h 0,0 km/h (0 Bft)
25.06.2009 01:00 22,3 C 16,7 C 0,0 UV-I 0,0 C 48 % 69 % 0 % 1015,9 hPa 0,0 l/m 0,0 km/h (0 Bft) 0,00 h 0,0 km/h (0 Bft)
25.06.2009 02:00 22,1 C 16,7 C 0,0 UV-I 0,0 C 50 % 72 % 0 % 1015,7 hPa 0,0 l/m 0,0 km/h (0 Bft) 0,00 h 0,0 km/h (0 Bft)
25.06.2009 03:00 22,0 C 16,6 C 0,0 UV-I 0,0 C 51 % 73 % 0 % 1015,5 hPa 0,0 l/m 0,0 km/h (0 Bft) 0,00 h 0,1 km/h (0 Bft)
25.06.2009 04:00 21,8 C 16,2 C 0,0 UV-I 0,0 C 52 % 74 % 0 % 1015,1 hPa 0,0 l/m 0,0 km/h (0 Bft) 0,00 h 0,0 km/h (0 Bft)
25.06.2009 05:00 21,7 C 15,4 C 0,0 UV-I 0,0 C 53 % 76 % 0 % 1015,1 hPa 0,0 l/m 0,0 km/h (0 Bft) 0,00 h 0,0 km/h (0 Bft)
25.06.2009 06:00 21,3 C 15,0 C 0,5 UV-I 0,0 C 54 % 80 % 0 % 1014,7 hPa 0,0 l/m 0,1 km/h (0 Bft) 0,00 h 0,5 km/h (0 Bft)
25.06.2009 07:00 21,3 C 16,0 C 1,1 UV-I 0,4 C 54 % 77 % 13 % 1014,5 hPa 0,0 l/m 0,3 km/h (0 Bft) 0,00 h 0,5 km/h (0 Bft)
25.06.2009 08:00 21,5 C 17,6 C 1,7 UV-I 0,9 C 54 % 71 % 27 % 1014,5 hPa 0,0 l/m 0,4 km/h (0 Bft) 0,00 h 0,8 km/h (0 Bft)
25.06.2009 09:00 21,8 C 19,3 C 2,3 UV-I 1,7 C 53 % 66 % 43 % 1014,4 hPa 0,0 l/m 0,9 km/h (0 Bft) 0,17 h 2,4 km/h (1 Bft)
25.06.2009 10:00 22,0 C 21,4 C 3,9 UV-I 6,0 C 54 % 62 % 100 % 1014,0 hPa 0,0 l/m 3,0 km/h (1 Bft) 0,97 h 5,4 km/h (1 Bft)
25.06.2009 11:00 22,3 C 23,0 C 7,2 UV-I 4,2 C 55 % 58 % 97 % 1013,8 hPa 0,0 l/m 4,0 km/h (1 Bft) 0,90 h 6,4 km/h (2 Bft)
25.06.2009 12:00 22,6 C 24,6 C 7,1 UV-I 5,2 C 55 % 55 % 100 % 1013,3 hPa 0,0 l/m 4,3 km/h (1 Bft) 1,00 h 5,7 km/h (1 Bft)
25.06.2009 13:00 23,0 C 26,9 C 7,0 UV-I 5,1 C 55 % 51 % 100 % 1013,2 hPa 0,0 l/m 2,4 km/h (1 Bft) 0,87 h 3,3 km/h (1 Bft)
25.06.2009 14:00 23,7 C 28,5 C 6,6 UV-I 4,2 C 55 % 48 % 100 % 1013,0 hPa 0,0 l/m 1,7 km/h (1 Bft) 0,97 h 3,0 km/h (1 Bft)
25.06.2009 15:00 24,5 C 28,8 C 6,0 UV-I 3,2 C 55 % 47 % 82 % 1012,7 hPa 0,0 l/m 2,0 km/h (1 Bft) 0,47 h 3,3 km/h (1 Bft)
25.06.2009 16:00 25,4 C 29,6 C 7,3 UV-I 4,3 C 53 % 45 % 100 % 1012,0 hPa 0,0 l/m 2,8 km/h (1 Bft) 1,00 h 4,4 km/h (1 Bft)
25.06.2009 17:00 26,1 C 29,6 C 4,0 UV-I 3,2 C 51 % 45 % 82 % 1011,6 hPa 0,0 l/m 1,9 km/h (1 Bft) 0,47 h 3,1 km/h (1 Bft)
25.06.2009 18:00 26,2 C 28,3 C 2,6 UV-I 3,1 C 50 % 46 % 87 % 1011,4 hPa 0,0 l/m 1,7 km/h (1 Bft) 0,73 h 3,0 km/h (1 Bft)
25.06.2009 19:00 25,9 C 26,7 C 1,7 UV-I 0,1 C 50 % 48 % 3 % 1011,4 hPa 0,0 l/m 1,0 km/h (0 Bft) 0,00 h 2,0 km/h (1 Bft)
25.06.2009 20:00 25,3 C 25,6 C 0,8 UV-I 0,0 C 51 % 50 % 0 % 1011,0 hPa 0,0 l/m 0,3 km/h (0 Bft) 0,00 h 0,1 km/h (0 Bft)
25.06.2009 21:00 24,9 C 24,3 C 0,2 UV-I 0,0 C 52 % 55 % 0 % 1011,0 hPa 0,0 l/m 0,0 km/h (0 Bft) 0,00 h 0,0 km/h (0 Bft)
25.06.2009 22:00 24,6 C 22,5 C 0,0 UV-I 0,0 C 54 % 61 % 0 % 1011,2 hPa 0,0 l/m 0,0 km/h (0 Bft) 0,00 h 0,1 km/h (0 Bft)
25.06.2009 23:00 24,2 C 21,1 C 0,0 UV-I 0,0 C 56 % 67 % 0 % 1011,4 hPa 0,0 l/m 0,0 km/h (0 Bft) 0,00 h 0,0 km/h (0 Bft)
26.06.2009 00:00 23,8 C 19,9 C 0,0 UV-I 0,0 C 57 % 73 % 0 % 1011,5 hPa 0,0 l/m 0,0 km/h (0 Bft) 0,00 h 0,0 km/h (0 Bft)
26.06.2009 01:00 23,4 C 18,9 C 0,0 UV-I 0,0 C 59 % 79 % 0 % 1011,6 hPa 0,0 l/m 0,0 km/h (0 Bft) 0,00 h 0,0 km/h (0 Bft)
26.06.2009 02:00 23,2 C 18,0 C 0,0 UV-I 0,0 C 60 % 81 % 0 % 1011,4 hPa 0,0 l/m 0,0 km/h (0 Bft) 0,00 h 0,0 km/h (0 Bft)
26.06.2009 03:00 22,9 C 17,0 C 0,0 UV-I 0,0 C 61 % 84 % 0 % 1011,1 hPa 0,0 l/m 0,0 km/h (0 Bft) 0,00 h 0,0 km/h (0 Bft)
26.06.2009 04:00 22,7 C 16,7 C 0,0 UV-I 0,0 C 61 % 86 % 0 % 1010,7 hPa 0,0 l/m 0,0 km/h (0 Bft) 0,00 h 0,0 km/h (0 Bft)
26.06.2009 05:00 22,6 C 17,1 C 0,0 UV-I 0,0 C 62 % 86 % 0 % 1010,6 hPa 0,0 l/m 0,0 km/h (0 Bft) 0,00 h 0,0 km/h (0 Bft)
26.06.2009 06:00 22,5 C 17,4 C 0,2 UV-I 0,0 C 62 % 86 % 1 % 1010,7 hPa 0,0 l/m 0,0 km/h (0 Bft) 0,00 h 0,0 km/h (0 Bft)
26.06.2009 07:00 22,6 C 18,0 C 0,9 UV-I 0,7 C 62 % 84 % 21 % 1011,0 hPa 0,0 l/m 0,0 km/h (0 Bft) 0,00 h 0,1 km/h (0 Bft)
26.06.2009 08:00 22,8 C 19,1 C 1,7 UV-I 1,2 C 62 % 81 % 36 % 1011,2 hPa 0,0 l/m 0,0 km/h (0 Bft) 0,00 h 0,4 km/h (0 Bft)
26.06.2009 09:00 22,9 C 20,3 C 2,3 UV-I 1,9 C 61 % 76 % 45 % 1010,9 hPa 0,0 l/m 1,0 km/h (0 Bft) 0,17 h 3,2 km/h (1 Bft)
26.06.2009 10:00 23,1 C 22,9 C 3,3 UV-I 6,0 C 62 % 70 % 100 % 1011,1 hPa 0,0 l/m 1,5 km/h (1 Bft) 1,00 h 2,4 km/h (1 Bft)
26.06.2009 11:00 23,3 C 24,6 C 5,6 UV-I 3,8 C 61 % 63 % 93 % 1011,2 hPa 0,0 l/m 0,8 km/h (0 Bft) 0,83 h 1,5 km/h (1 Bft)
26.06.2009 12:00 23,6 C 25,6 C 4,6 UV-I 2,8 C 61 % 59 % 79 % 1011,2 hPa 0,0 l/m 1,3 km/h (1 Bft) 0,37 h 3,1 km/h (1 Bft)
26.06.2009 13:00 23,9 C 26,3 C 5,7 UV-I 3,8 C 60 % 57 % 85 % 1011,2 hPa 0,0 l/m 1,5 km/h (1 Bft) 0,33 h 2,6 km/h (1 Bft)
26.06.2009 14:00 24,4 C 28,6 C 6,0 UV-I 3,9 C 59 % 51 % 85 % 1011,1 hPa 0,0 l/m 1,3 km/h (1 Bft) 0,73 h 1,8 km/h (1 Bft)
26.06.2009 15:00 25,2 C 29,9 C 5,9 UV-I 4,4 C 57 % 46 % 96 % 1011,0 hPa 0,0 l/m 0,8 km/h (0 Bft) 0,87 h 1,8 km/h (1 Bft)
26.06.2009 16:00 26,8 C 30,5 C 7,2 UV-I 4,6 C 53 % 43 % 100 % 1010,6 hPa 0,0 l/m 2,8 km/h (1 Bft) 1,00 h 5,2 km/h (1 Bft)
26.06.2009 17:00 27,9 C 30,2 C 3,9 UV-I 3,2 C 50 % 43 % 80 % 1010,8 hPa 0,0 l/m 2,9 km/h (1 Bft) 0,67 h 4,0 km/h (1 Bft)
26.06.2009 18:00 27,9 C 28,8 C 1,8 UV-I 1,7 C 49 % 48 % 47 % 1011,2 hPa 0,2 l/m 1,9 km/h (1 Bft) 0,30 h 3,2 km/h (1 Bft)
26.06.2009 19:00 27,0 C 24,5 C 0,3 UV-I 0,0 C 54 % 69 % 0 % 1011,8 hPa 4,0 l/m 1,0 km/h (0 Bft) 0,00 h 1,1 km/h (1 Bft)
26.06.2009 20:00 26,0 C 21,8 C 0,1 UV-I 0,0 C 58 % 78 % 0 % 1011,5 hPa 0,0 l/m 0,1 km/h (0 Bft) 0,00 h 0,2 km/h (0 Bft)
26.06.2009 21:00 25,2 C 21,0 C 0,0 UV-I 0,0 C 61 % 85 % 0 % 1011,6 hPa 0,0 l/m 0,0 km/h (0 Bft) 0,00 h 0,0 km/h (0 Bft)
26.06.2009 22:00 24,8 C 20,8 C 0,0 UV-I 0,0 C 63 % 86 % 0 % 1012,2 hPa 0,0 l/m 0,2 km/h (0 Bft) 0,00 h 0,3 km/h (0 Bft)
26.06.2009 23:00 24,5 C 20,3 C 0,0 UV-I 0,0 C 64 % 86 % 0 % 1012,8 hPa 0,0 l/m 0,5 km/h (0 Bft) 0,00 h 0,8 km/h (0 Bft)
27.06.2009 00:00 24,1 C 19,4 C 0,0 UV-I 0,0 C 64 % 85 % 0 % 1012,2 hPa 0,0 l/m 0,3 km/h (0 Bft) 0,00 h 0,5 km/h (0 Bft)
27.06.2009 01:00 23,8 C 18,6 C 0,0 UV-I 0,0 C 65 % 87 % 0 % 1012,4 hPa 0,0 l/m 0,2 km/h (0 Bft) 0,00 h 0,7 km/h (0 Bft)
27.06.2009 02:00 23,5 C 17,9 C 0,0 UV-I 0,0 C 66 % 89 % 0 % 1012,5 hPa 0,0 l/m 0,1 km/h (0 Bft) 0,00 h 0,1 km/h (0 Bft)
27.06.2009 03:00 23,2 C 17,4 C 0,0 UV-I 0,0 C 65 % 89 % 0 % 1012,5 hPa 0,0 l/m 0,0 km/h (0 Bft) 0,00 h 0,0 km/h (0 Bft)
27.06.2009 04:00 23,1 C 17,1 C 0,0 UV-I 0,0 C 65 % 90 % 0 % 1012,7 hPa 0,0 l/m 0,0 km/h (0 Bft) 0,00 h 0,0 km/h (0 Bft)
27.06.2009 05:00 23,0 C 17,0 C 0,0 UV-I 0,0 C 65 % 91 % 0 % 1012,8 hPa 0,0 l/m 0,0 km/h (0 Bft) 0,00 h 0,0 km/h (0 Bft)
27.06.2009 06:00 22,9 C 16,9 C 0,3 UV-I 0,0 C 65 % 91 % 0 % 1013,1 hPa 0,0 l/m 0,0 km/h (0 Bft) 0,00 h 0,1 km/h (0 Bft)
27.06.2009 07:00 22,9 C 17,5 C 0,8 UV-I 0,4 C 66 % 92 % 12 % 1013,6 hPa 0,0 l/m 0,1 km/h (0 Bft) 0,00 h 0,2 km/h (0 Bft)
27.06.2009 08:00 23,1 C 18,5 C 1,3 UV-I 0,8 C 66 % 91 % 23 % 1013,9 hPa 0,0 l/m 0,8 km/h (0 Bft) 0,00 h 2,0 km/h (1 Bft)
27.06.2009 09:00 23,2 C 19,6 C 1,7 UV-I 1,0 C 66 % 87 % 30 % 1014,2 hPa 0,0 l/m 1,1 km/h (0 Bft) 0,00 h 1,7 km/h (1 Bft)
27.06.2009 10:00 23,4 C 20,4 C 2,4 UV-I 1,0 C 66 % 85 % 29 % 1014,5 hPa 0,0 l/m 0,4 km/h (0 Bft) 0,00 h 0,7 km/h (0 Bft)
27.06.2009 11:00 23,7 C 21,8 C 4,0 UV-I 2,7 C 67 % 81 % 76 % 1014,6 hPa 0,0 l/m 0,7 km/h (0 Bft) 0,30 h 1,7 km/h (1 Bft)
27.06.2009 12:00 24,0 C 23,4 C 5,1 UV-I 3,3 C 67 % 75 % 86 % 1014,6 hPa 0,0 l/m 1,3 km/h (1 Bft) 0,60 h 2,3 km/h (1 Bft)
27.06.2009 13:00 24,2 C 25,1 C 5,9 UV-I 3,9 C 66 % 69 % 92 % 1014,9 hPa 0,0 l/m 1,0 km/h (0 Bft) 0,77 h 1,5 km/h (1 Bft)
27.06.2009 14:00 24,7 C 27,0 C 7,7 UV-I 4,7 C 65 % 62 % 99 % 1014,8 hPa 0,0 l/m 2,0 km/h (1 Bft) 0,93 h 3,7 km/h (1 Bft)
27.06.2009 15:00 25,2 C 27,6 C 2,5 UV-I 1,5 C 63 % 59 % 33 % 1014,9 hPa 0,0 l/m 0,8 km/h (0 Bft) 0,23 h 1,3 km/h (1 Bft)
27.06.2009 16:00 25,1 C 23,9 C 0,1 UV-I 0,0 C 62 % 67 % 0 % 1015,4 hPa 0,0 l/m 1,2 km/h (1 Bft) 0,00 h 2,1 km/h (1 Bft)
27.06.2009 17:00 24,5 C 20,5 C 0,2 UV-I 0,0 C 63 % 78 % 0 % 1015,5 hPa 1,3 l/m 0,4 km/h (0 Bft) 0,00 h 0,7 km/h (0 Bft)
27.06.2009 18:00 24,0 C 19,4 C 0,7 UV-I 0,0 C 66 % 87 % 0 % 1015,5 hPa 1,1 l/m 0,0 km/h (0 Bft) 0,00 h 0,2 km/h (0 Bft)
27.06.2009 19:00 23,9 C 19,6 C 0,5 UV-I 0,0 C 67 % 90 % 0 % 1015,4 hPa 0,2 l/m 0,0 km/h (0 Bft) 0,00 h 0,0 km/h (0 Bft)
27.06.2009 20:00 23,8 C 19,8 C 0,2 UV-I 0,0 C 68 % 90 % 0 % 1015,3 hPa 0,0 l/m 0,0 km/h (0 Bft) 0,00 h 0,0 km/h (0 Bft)
27.06.2009 21:00 23,7 C 19,8 C 0,0 UV-I 0,0 C 69 % 90 % 0 % 1015,1 hPa 0,0 l/m 0,0 km/h (0 Bft) 0,00 h 0,0 km/h (0 Bft)
27.06.2009 22:00 23,5 C 19,3 C 0,0 UV-I 0,0 C 70 % 90 % 0 % 1015,4 hPa 0,0 l/m 0,0 km/h (0 Bft) 0,00 h 0,0 km/h (0 Bft)
27.06.2009 23:00 23,2 C 18,8 C 0,0 UV-I 0,0 C 70 % 92 % 0 % 1015,9 hPa 0,0 l/m 0,0 km/h (0 Bft) 0,00 h 0,0 km/h (0 Bft)
28.06.2009 00:00 23,2 C 18,8 C 0,0 UV-I 0,0 C 70 % 92 % 0 % 1016,0 hPa 0,0 l/m 0,0 km/h (0 Bft) 0,00 h 0,0 km/h (0 Bft)
28.06.2009 01:00 23,1 C 18,7 C 0,0 UV-I 0,0 C 70 % 93 % 0 % 1016,1 hPa 0,1 l/m 0,0 km/h (0 Bft) 0,00 h 0,0 km/h (0 Bft)
28.06.2009 02:00 23,0 C 18,7 C 0,0 UV-I 0,0 C 70 % 93 % 0 % 1016,0 hPa 0,0 l/m 0,0 km/h (0 Bft) 0,00 h 0,0 km/h (0 Bft)
28.06.2009 03:00 23,0 C 18,7 C 0,0 UV-I 0,0 C 71 % 93 % 0 % 1015,8 hPa 0,0 l/m 0,0 km/h (0 Bft) 0,00 h 0,0 km/h (0 Bft)
28.06.2009 04:00 22,9 C 18,6 C 0,0 UV-I 0,0 C 71 % 93 % 0 % 1015,5 hPa 0,0 l/m 0,0 km/h (0 Bft) 0,00 h 0,0 km/h (0 Bft)
28.06.2009 05:00 23,0 C 18,7 C 0,0 UV-I 0,0 C 71 % 93 % 0 % 1015,5 hPa 0,0 l/m 0,0 km/h (0 Bft) 0,00 h 0,0 km/h (0 Bft)
28.06.2009 06:00 23,2 C 19,0 C 0,3 UV-I 0,0 C 71 % 94 % 0 % 1015,4 hPa 0,0 l/m 0,1 km/h (0 Bft) 0,00 h 0,5 km/h (0 Bft)
28.06.2009 07:00 23,2 C 19,3 C 0,7 UV-I 0,0 C 71 % 93 % 0 % 1015,5 hPa 0,0 l/m 0,1 km/h (0 Bft) 0,00 h 0,1 km/h (0 Bft)
28.06.2009 08:00 23,2 C 19,6 C 0,9 UV-I 0,0 C 71 % 92 % 0 % 1015,7 hPa 0,0 l/m 0,1 km/h (0 Bft) 0,00 h 0,0 km/h (0 Bft)
28.06.2009 09:00 23,1 C 19,8 C 1,0 UV-I 0,2 C 71 % 90 % 5 % 1016,1 hPa 0,0 l/m 0,6 km/h (0 Bft) 0,00 h 1,4 km/h (1 Bft)
28.06.2009 10:00 23,3 C 20,5 C 1,9 UV-I 1,2 C 71 % 87 % 35 % 1016,2 hPa 0,0 l/m 0,1 km/h (0 Bft) 0,00 h 0,0 km/h (0 Bft)
28.06.2009 11:00 23,5 C 21,1 C 1,7 UV-I 0,6 C 70 % 85 % 18 % 1016,3 hPa 0,0 l/m 0,4 km/h (0 Bft) 0,00 h 0,6 km/h (0 Bft)
28.06.2009 12:00 23,7 C 21,9 C 3,7 UV-I 2,0 C 70 % 83 % 58 % 1016,6 hPa 0,0 l/m 0,5 km/h (0 Bft) 0,13 h 1,5 km/h (1 Bft)
28.06.2009 13:00 24,2 C 23,7 C 5,2 UV-I 3,0 C 68 % 78 % 81 % 1016,6 hPa 0,0 l/m 1,6 km/h (1 Bft) 0,17 h 4,4 km/h (1 Bft)
28.06.2009 14:00 24,7 C 25,9 C 6,5 UV-I 4,0 C 67 % 69 % 97 % 1016,6 hPa 0,0 l/m 2,1 km/h (1 Bft) 0,48 h 4,4 km/h (1 Bft)
28.06.2009 15:00 25,4 C 27,5 C 6,8 UV-I 4,6 C 65 % 61 % 100 % 1016,8 hPa 0,0 l/m 2,0 km/h (1 Bft) 0,55 h 3,3 km/h (1 Bft)
28.06.2009 16:00 26,1 C 28,2 C 6,4 UV-I 4,0 C 62 % 55 % 100 % 1016,5 hPa 0,0 l/m 2,3 km/h (1 Bft) 0,82 h 3,8 km/h (1 Bft)
28.06.2009 17:00 26,7 C 28,5 C 4,2 UV-I 3,2 C 59 % 54 % 90 % 1016,2 hPa 0,0 l/m 1,8 km/h (1 Bft) 0,65 h 4,1 km/h (1 Bft)
28.06.2009 18:00 26,8 C 27,7 C 2,6 UV-I 1,8 C 58 % 56 % 52 % 1016,0 hPa 0,0 l/m 3,0 km/h (1 Bft) 0,03 h 5,5 km/h (1 Bft)
28.06.2009 19:00 26,4 C 26,4 C 1,7 UV-I 0,2 C 60 % 62 % 6 % 1016,4 hPa 0,0 l/m 2,0 km/h (1 Bft) 0,00 h 2,5 km/h (1 Bft)
28.06.2009 20:00 26,0 C 25,4 C 0,7 UV-I 0,0 C 61 % 64 % 0 % 1016,5 hPa 0,0 l/m 1,0 km/h (0 Bft) 0,00 h 0,9 km/h (0 Bft)
28.06.2009 21:00 25,7 C 24,1 C 0,1 UV-I 0,0 C 62 % 70 % 0 % 1016,7 hPa 0,1 l/m 0,3 km/h (0 Bft) 0,00 h 0,4 km/h (0 Bft)
28.06.2009 22:00 25,2 C 22,8 C 0,0 UV-I 0,0 C 63 % 75 % 0 % 1016,9 hPa 0,0 l/m 0,0 km/h (0 Bft) 0,00 h 0,0 km/h (0 Bft)
28.06.2009 23:00 24,8 C 21,3 C 0,0 UV-I 0,0 C 65 % 80 % 0 % 1017,1 hPa 0,0 l/m 0,0 km/h (0 Bft) 0,00 h 0,0 km/h (0 Bft)
Min-Datum _ 22.06.09 22.06.09 22.06.09 22.06.09 24.06.09 24.06.09 22.06.09 26.06.09 - 22.06.09 - 22.06.09
_ Min-Zeit 05:38 05:32 00:00 00:00 17:34 17:28 00:00 16:58 - 00:00 - 00:00
Minimum _ 18,2 C 8,0 C 0,0 UV-I 0,0 C 37 % 28 % 0 % 1010,4 hPa - 0,0 km/h (0 Bft) - 0,0 km/h (0 Bft)
Max-Datum _ 26.06.09 26.06.09 24.06.09 26.06.09 28.06.09 23.06.09 22.06.09 23.06.09 26.06.09 23.06.09 22.06.09 23.06.09
_ Max-Zeit 17:54 16:42 11:02 10:36 03:06 07:18 09:54 09:58 19:00 14:02 09:52 16:16
Maximum _ 28,1 C 31,1 C 12,7 UV-I 7,3 C 71 % 94 % 100 % 1028,6 hPa 4,0 l/m 7,2 km/h
S (2 Bft)
0,03 h 26,5 km/h
SW (4 Bft)
Durchschnitt _ 22,5 C 19,7 C 2,0 UV-I 1,3 C 57 % 70 % 31 % 1018,2 hPa #7,0 l/m 1,3 km/h (1 Bft) #34:42 h 2,1 km/h (1 Bft)
© 2012 W. Hausmann